createdAt,value
2019-01-27T00:01:08.249Z,98791.59
2019-01-27T00:03:36.833Z,98773.88
2019-01-27T00:06:05.436Z,98769.41
2019-01-27T00:08:34.137Z,98757.63
2019-01-27T00:11:02.817Z,98758.86
2019-01-27T00:13:31.456Z,98754.66
2019-01-27T00:16:00.084Z,98749.94
2019-01-27T00:18:28.745Z,98739.91
2019-01-27T00:20:57.381Z,98731.70
2019-01-27T00:23:26.036Z,98726.94
2019-01-27T00:25:54.751Z,98724.88
2019-01-27T00:28:23.388Z,98713.23
2019-01-27T00:30:51.997Z,98713.64
2019-01-27T00:33:20.609Z,98701.78
2019-01-27T00:35:50.571Z,98694.80
2019-01-27T00:38:19.191Z,98686.62
2019-01-27T00:40:47.784Z,98685.41
2019-01-27T00:43:16.376Z,98667.67
2019-01-27T00:45:45.008Z,98663.14
2019-01-27T00:48:13.690Z,98653.52
2019-01-27T00:50:42.334Z,98648.94
2019-01-27T00:53:10.947Z,98660.69
2019-01-27T00:55:39.619Z,98646.88
2019-01-27T00:58:08.252Z,98641.66
2019-01-27T01:00:36.818Z,98639.11
2019-01-27T01:03:05.736Z,98638.73
2019-01-27T01:05:34.436Z,98626.33
2019-01-27T01:08:03.017Z,98625.80
2019-01-27T01:10:31.580Z,98618.23
2019-01-27T01:13:00.246Z,98616.16
2019-01-27T01:15:28.869Z,98610.25
2019-01-27T01:17:57.537Z,98607.88
2019-01-27T01:20:26.105Z,98603.89
2019-01-27T01:22:54.703Z,98593.95
2019-01-27T01:25:23.595Z,98590.59
2019-01-27T01:27:52.574Z,98582.16
2019-01-27T01:30:24.620Z,98581.34
2019-01-27T01:32:53.339Z,98568.86
2019-01-27T01:35:21.947Z,98568.59
2019-01-27T01:37:50.737Z,98554.69
2019-01-27T01:40:19.376Z,98558.39
2019-01-27T01:42:47.981Z,98544.63
2019-01-27T01:45:19.219Z,98547.05
2019-01-27T01:47:47.873Z,98538.03
2019-01-27T01:50:16.457Z,98542.33
2019-01-27T01:52:45.050Z,98531.75
2019-01-27T01:55:13.891Z,98523.98
2019-01-27T01:57:42.534Z,98528.05
2019-01-27T02:00:13.714Z,98518.02
2019-01-27T02:02:42.401Z,98509.53
2019-01-27T02:05:11.275Z,98500.50
2019-01-27T02:07:39.880Z,98493.70
2019-01-27T02:10:10.182Z,98491.18
2019-01-27T02:12:38.814Z,98482.91
2019-01-27T02:15:15.242Z,98480.53
2019-01-27T02:17:43.921Z,98472.09
2019-01-27T02:20:12.625Z,98470.46
2019-01-27T02:22:41.476Z,98456.11
2019-01-27T02:25:10.115Z,98452.70
2019-01-27T02:27:38.859Z,98449.74
2019-01-27T02:30:07.874Z,98439.09
2019-01-27T02:32:36.521Z,98433.64
2019-01-27T02:35:05.347Z,98427.87
2019-01-27T02:37:34.050Z,98427.16
2019-01-27T02:40:02.657Z,98419.91
2019-01-27T02:42:31.273Z,98410.86
2019-01-27T02:44:59.891Z,98412.58
2019-01-27T02:47:28.531Z,98410.11
2019-01-27T02:49:57.130Z,98406.93
2019-01-27T02:52:25.740Z,98403.84
2019-01-27T02:54:54.455Z,98388.07
2019-01-27T02:57:23.027Z,98378.17
2019-01-27T02:59:52.838Z,98368.34
2019-01-27T03:02:21.621Z,98369.89
2019-01-27T03:04:50.228Z,98369.50
2019-01-27T03:07:36.098Z,98368.70
2019-01-27T03:10:07.662Z,98359.09
2019-01-27T03:12:36.226Z,98357.59
2019-01-27T03:15:05.512Z,98347.98
2019-01-27T03:17:34.135Z,98346.66
2019-01-27T03:20:02.738Z,98337.28
2019-01-27T03:22:31.329Z,98340.98
2019-01-27T03:24:59.992Z,98325.44
2019-01-27T03:27:28.561Z,98330.47
2019-01-27T03:29:57.140Z,98324.34
2019-01-27T03:32:25.825Z,98321.16
2019-01-27T03:34:54.398Z,98318.56
2019-01-27T03:37:23.038Z,98305.72
2019-01-27T03:39:51.750Z,98309.64
2019-01-27T03:42:20.344Z,98302.47
2019-01-27T03:44:48.938Z,98299.81
2019-01-27T03:47:17.718Z,98287.02
2019-01-27T03:49:46.309Z,98287.91
2019-01-27T03:52:15.089Z,98285.47
2019-01-27T03:54:43.785Z,98285.53
2019-01-27T03:57:12.370Z,98269.34
2019-01-27T03:59:40.956Z,98271.72
2019-01-27T04:02:08.979Z,98267.56
2019-01-27T04:04:37.616Z,98259.97
2019-01-27T04:07:06.292Z,98259.75
2019-01-27T04:09:34.880Z,98257.09
2019-01-27T04:12:03.501Z,98249.24
2019-01-27T04:14:32.086Z,98237.36
2019-01-27T04:17:00.737Z,98242.81
2019-01-27T04:19:29.353Z,98229.00
2019-01-27T04:21:58.005Z,98235.64
2019-01-27T04:24:26.642Z,98230.04
2019-01-27T04:26:55.292Z,98220.13
2019-01-27T04:29:23.901Z,98216.73
2019-01-27T04:31:52.549Z,98213.77
2019-01-27T04:34:21.138Z,98212.20
2019-01-27T04:36:49.732Z,98212.49
2019-01-27T04:39:18.362Z,98210.21
2019-01-27T04:41:46.966Z,98200.61
2019-01-27T04:44:15.616Z,98205.98
2019-01-27T04:46:44.201Z,98202.17
2019-01-27T04:49:12.839Z,98192.11
2019-01-27T04:51:41.459Z,98196.73
2019-01-27T04:54:10.092Z,98188.63
2019-01-27T04:56:38.684Z,98182.84
2019-01-27T04:59:07.338Z,98177.52
2019-01-27T05:01:35.969Z,98172.20
2019-01-27T05:04:26.035Z,98168.59
2019-01-27T05:06:54.631Z,98173.39
2019-01-27T05:09:23.243Z,98164.08
2019-01-27T05:11:52.633Z,98159.68
2019-01-27T05:14:21.369Z,98164.13
2019-01-27T05:16:49.983Z,98149.33
2019-01-27T05:19:19.992Z,98152.88
2019-01-27T05:21:48.606Z,98142.12
2019-01-27T05:24:17.239Z,98130.29
2019-01-27T05:26:45.834Z,98118.09
2019-01-27T05:29:14.468Z,98125.12
2019-01-27T05:31:43.070Z,98119.95
2019-01-27T05:34:11.715Z,98121.09
2019-01-27T05:36:40.320Z,98108.32
2019-01-27T05:39:09.281Z,98108.98
2019-01-27T05:41:37.838Z,98110.28
2019-01-27T05:44:06.465Z,98093.02
2019-01-27T05:46:35.098Z,98087.98
2019-01-27T05:49:03.762Z,98083.77
2019-01-27T05:51:32.347Z,98067.74
2019-01-27T05:54:00.989Z,98072.89
2019-01-27T05:56:29.655Z,98080.10
2019-01-27T05:58:58.240Z,98075.45
2019-01-27T06:01:26.789Z,98075.97
2019-01-27T06:03:55.401Z,98071.45
2019-01-27T06:06:24.069Z,98071.88
2019-01-27T06:08:52.697Z,98069.45
2019-01-27T06:11:21.336Z,98072.92
2019-01-27T06:13:49.928Z,98070.13
2019-01-27T06:16:18.656Z,98073.45
2019-01-27T06:18:47.315Z,98067.47
2019-01-27T06:21:15.892Z,98066.09
2019-01-27T06:23:44.496Z,98056.00
2019-01-27T06:26:13.090Z,98055.11
2019-01-27T06:28:41.691Z,98050.67
2019-01-27T06:31:10.312Z,98057.77
2019-01-27T06:33:52.932Z,98047.91
2019-01-27T06:36:21.407Z,98046.63
2019-01-27T06:38:50.092Z,98037.66
2019-01-27T06:41:18.676Z,98024.58
2019-01-27T06:43:47.308Z,98031.62
2019-01-27T06:46:15.975Z,98028.96
2019-01-27T06:48:44.576Z,98017.92
2019-01-27T06:51:13.491Z,98015.86
2019-01-27T06:53:42.147Z,98014.98
2019-01-27T06:56:10.759Z,98009.20
2019-01-27T06:58:57.176Z,98013.02
2019-01-27T07:01:32.884Z,98013.02
2019-01-27T07:04:08.663Z,98009.30
2019-01-27T07:06:59.345Z,98009.30
2019-01-27T07:09:49.694Z,98010.92
2019-01-27T07:12:26.812Z,98002.94
2019-01-27T07:15:14.222Z,97994.62
2019-01-27T07:18:01.905Z,97995.90
2019-01-27T07:20:55.912Z,97997.39
2019-01-27T07:23:32.955Z,97992.92
2019-01-27T07:26:11.885Z,97985.54
2019-01-27T07:29:02.887Z,97986.39
2019-01-27T07:31:49.560Z,97977.96
2019-01-27T07:34:35.877Z,97990.38
2019-01-27T07:37:22.240Z,97971.59
2019-01-27T07:40:03.639Z,97975.99
2019-01-27T07:42:39.925Z,97971.80
2019-01-27T07:45:28.806Z,97976.31
2019-01-27T07:48:09.050Z,97973.32
2019-01-27T07:50:56.648Z,97968.80
2019-01-27T07:53:44.514Z,97961.87
2019-01-27T07:56:40.559Z,97954.69
2019-01-27T07:59:24.412Z,97956.83
2019-01-27T08:02:00.432Z,97952.52
2019-01-27T08:04:40.196Z,97955.99
2019-01-27T08:07:26.331Z,97956.52
2019-01-27T08:10:06.169Z,97948.52
2019-01-27T08:12:56.739Z,97945.45
2019-01-27T08:15:44.341Z,97942.30
2019-01-27T08:18:40.182Z,97947.51
2019-01-27T08:21:15.448Z,97938.02
2019-01-27T08:24:15.536Z,97938.02
2019-01-27T08:27:05.795Z,97938.53
2019-01-27T08:29:53.089Z,97934.05
2019-01-27T08:32:39.966Z,97941.88
2019-01-27T08:35:27.641Z,97939.52
2019-01-27T08:38:15.654Z,97937.14
2019-01-27T08:41:12.377Z,97931.78
2019-01-27T08:44:02.762Z,97926.59
2019-01-27T08:46:35.597Z,97928.63
2019-01-27T08:49:04.202Z,97924.20
2019-01-27T08:51:32.842Z,97916.63
2019-01-27T08:54:01.435Z,97921.16
2019-01-27T08:56:30.090Z,97921.44
2019-01-27T08:58:58.712Z,97912.87
2019-01-27T09:01:45.412Z,97911.89
2019-01-27T09:04:41.801Z,97907.55
2019-01-27T09:07:28.211Z,97917.51
2019-01-27T09:10:05.802Z,97914.14
2019-01-27T09:12:42.602Z,97902.95
2019-01-27T09:15:29.162Z,97904.87
2019-01-27T09:18:08.854Z,97905.37
2019-01-27T09:20:46.247Z,97902.08
2019-01-27T09:23:33.833Z,97894.05
2019-01-27T09:26:17.621Z,97895.69
2019-01-27T09:28:58.484Z,97898.60
2019-01-27T09:31:33.826Z,97900.11
2019-01-27T09:34:24.427Z,97901.66
2019-01-27T09:36:59.784Z,97902.98
2019-01-27T09:39:50.491Z,97887.45
2019-01-27T09:42:40.753Z,97880.34
2019-01-27T09:45:21.941Z,97892.50
2019-01-27T09:48:08.358Z,97893.14
2019-01-27T09:50:42.549Z,97903.62
2019-01-27T09:53:30.148Z,97903.97
2019-01-27T09:56:04.233Z,97899.52
2019-01-27T09:58:51.076Z,97906.31
2019-01-27T10:01:25.463Z,97903.93
2019-01-27T10:04:00.868Z,97897.67
2019-01-27T10:06:49.747Z,97904.25
2019-01-27T10:09:38.811Z,97900.44
2019-01-27T10:12:13.176Z,97914.16
2019-01-27T10:14:59.619Z,97922.41
2019-01-27T10:17:48.695Z,97910.34
2019-01-27T10:20:51.432Z,97905.36
2019-01-27T10:23:35.113Z,97890.98
2019-01-27T10:26:14.245Z,97892.72
2019-01-27T10:28:57.373Z,97888.56
2019-01-27T10:31:45.094Z,97889.34
2019-01-27T10:34:20.833Z,97889.52
2019-01-27T10:36:57.817Z,97881.84
2019-01-27T10:39:34.104Z,97884.69
2019-01-27T10:42:23.248Z,97861.09
2019-01-27T10:45:13.019Z,97869.17
2019-01-27T10:47:58.737Z,97876.23
2019-01-27T10:50:56.893Z,97858.14
2019-01-27T10:53:59.892Z,97860.52
2019-01-27T10:56:50.338Z,97846.08
2019-01-27T10:59:48.341Z,97836.36
2019-01-27T11:02:37.180Z,97826.94
2019-01-27T11:05:22.688Z,97815.05
2019-01-27T11:08:07.952Z,97816.16
2019-01-27T11:10:53.482Z,97805.87
2019-01-27T11:13:33.296Z,97795.70
2019-01-27T11:16:33.078Z,97790.58
2019-01-27T11:19:12.457Z,97784.50
2019-01-27T11:21:58.827Z,97778.34
2019-01-27T11:24:35.536Z,97782.55
2019-01-27T11:27:23.209Z,97772.12
2019-01-27T11:30:03.308Z,97768.23
2019-01-27T11:32:53.495Z,97769.77
2019-01-27T11:35:53.239Z,97766.09
2019-01-27T11:38:39.502Z,97761.84
2019-01-27T11:41:26.212Z,97752.73
2019-01-27T11:44:12.418Z,97743.34
2019-01-27T11:47:00.052Z,97739.08
2019-01-27T11:49:52.665Z,97731.39
2019-01-27T11:52:25.562Z,97730.05
2019-01-27T11:54:54.576Z,97731.76
2019-01-27T11:57:23.185Z,97719.28
2019-01-27T11:59:51.843Z,97719.75
2019-01-27T12:02:20.432Z,97716.61
2019-01-27T12:04:49.098Z,97706.45
2019-01-27T12:07:17.704Z,97705.91
2019-01-27T12:09:46.315Z,97706.49
2019-01-27T12:12:15.165Z,97696.41
2019-01-27T12:14:43.927Z,97704.83
2019-01-27T12:17:15.811Z,97699.39
2019-01-27T12:19:46.855Z,97693.89
2019-01-27T12:22:15.755Z,97700.63
2019-01-27T12:24:44.500Z,97701.77
2019-01-27T12:27:13.071Z,97691.99
2019-01-27T12:29:41.712Z,97694.31
2019-01-27T12:32:10.292Z,97693.51
2019-01-27T12:34:38.937Z,97687.98
2019-01-27T12:37:07.568Z,97689.45
2019-01-27T12:39:36.169Z,97677.98
2019-01-27T12:42:04.765Z,97675.56
2019-01-27T12:44:33.389Z,97667.21
2019-01-27T12:47:02.004Z,97670.14
2019-01-27T12:49:30.601Z,97670.73
2019-01-27T12:51:59.199Z,97668.87
2019-01-27T12:54:27.887Z,97673.41
2019-01-27T12:56:56.493Z,97681.58
2019-01-27T12:59:25.077Z,97676.80
2019-01-27T13:01:53.699Z,97670.41
2019-01-27T13:04:22.388Z,97673.38
2019-01-27T13:06:51.027Z,97669.37
2019-01-27T13:09:19.609Z,97670.72
2019-01-27T13:11:48.225Z,97659.02
2019-01-27T13:14:16.845Z,97661.14
2019-01-27T13:16:45.411Z,97654.63
2019-01-27T13:19:14.151Z,97653.02
2019-01-27T13:21:42.839Z,97633.19
2019-01-27T13:24:11.504Z,97632.11
2019-01-27T13:26:40.035Z,97637.64
2019-01-27T13:29:08.674Z,97638.97
2019-01-27T13:31:37.331Z,97634.44
2019-01-27T13:34:05.934Z,97631.75
2019-01-27T13:36:34.557Z,97629.30
2019-01-27T13:39:03.763Z,97619.28
2019-01-27T13:41:32.401Z,97626.07
2019-01-27T13:44:01.055Z,97626.12
2019-01-27T13:46:29.760Z,97625.59
2019-01-27T13:48:58.361Z,97622.99
2019-01-27T13:51:27.921Z,97624.31
2019-01-27T13:53:56.524Z,97616.30
2019-01-27T13:56:25.127Z,97621.91
2019-01-27T13:58:53.751Z,97615.98
2019-01-27T14:01:22.342Z,97629.78
2019-01-27T14:03:51.005Z,97632.14
2019-01-27T14:06:19.585Z,97626.53
2019-01-27T14:08:49.886Z,97622.78
2019-01-27T14:11:20.257Z,97622.05
2019-01-27T14:13:49.559Z,97609.02
2019-01-27T14:16:18.136Z,97625.80
2019-01-27T14:18:46.819Z,97608.65
2019-01-27T14:21:16.609Z,97625.58
2019-01-27T14:23:45.419Z,97613.76
2019-01-27T14:26:14.095Z,97620.65
2019-01-27T14:28:42.872Z,97613.98
2019-01-27T14:31:14.424Z,97615.25
2019-01-27T14:33:43.058Z,97621.11
2019-01-27T14:36:11.641Z,97620.53
2019-01-27T14:38:40.334Z,97615.16
2019-01-27T14:41:09.006Z,97609.98
2019-01-27T14:43:37.585Z,97617.18
2019-01-27T14:46:06.250Z,97610.51
2019-01-27T14:48:34.820Z,97609.16
2019-01-27T14:51:03.437Z,97614.78
2019-01-27T14:53:32.021Z,97609.77
2019-01-27T14:56:00.559Z,97605.22
2019-01-27T14:58:29.247Z,97615.56
2019-01-27T15:00:57.848Z,97615.28
2019-01-27T15:03:26.475Z,97614.14
2019-01-27T15:05:55.061Z,97610.90
2019-01-27T15:08:23.650Z,97601.80
2019-01-27T15:10:52.249Z,97609.00
2019-01-27T15:13:20.846Z,97607.67
2019-01-27T15:15:49.435Z,97595.09
2019-01-27T15:18:19.730Z,97600.42
2019-01-27T15:20:51.418Z,97588.14
2019-01-27T15:23:20.042Z,97594.02
2019-01-27T15:25:48.965Z,97590.47
2019-01-27T15:28:17.593Z,97581.13
2019-01-27T15:30:46.224Z,97593.14
2019-01-27T15:33:14.836Z,97584.86
2019-01-27T15:35:43.490Z,97586.98
2019-01-27T15:38:12.082Z,97581.38
2019-01-27T15:40:40.853Z,97577.03
2019-01-27T15:43:09.508Z,97579.03
2019-01-27T15:45:38.632Z,97579.80
2019-01-27T15:48:07.244Z,97570.67
2019-01-27T15:50:35.952Z,97576.74
2019-01-27T15:53:04.545Z,97578.84
2019-01-27T15:55:33.109Z,97577.98
2019-01-27T15:58:01.753Z,97579.55
2019-01-27T16:00:31.146Z,97586.23
2019-01-27T16:02:59.764Z,97587.31
2019-01-27T16:05:28.366Z,97586.97
2019-01-27T16:07:56.905Z,97586.21
2019-01-27T16:10:25.523Z,97582.39
2019-01-27T16:12:54.853Z,97592.27
2019-01-27T16:15:28.436Z,97579.77
2019-01-27T16:17:57.014Z,97587.82
2019-01-27T16:20:26.131Z,97595.29
2019-01-27T16:23:25.730Z,97597.16
2019-01-27T16:25:54.582Z,97591.47
2019-01-27T16:28:23.167Z,97595.62
2019-01-27T16:31:22.905Z,97597.41
2019-01-27T16:34:02.227Z,97592.80
2019-01-27T16:36:31.450Z,97591.72
2019-01-27T16:39:00.173Z,97589.05
2019-01-27T16:41:28.793Z,97597.00
2019-01-27T16:43:57.440Z,97600.52
2019-01-27T16:46:26.192Z,97598.33
2019-01-27T16:48:55.021Z,97604.27
2019-01-27T16:51:23.622Z,97617.98
2019-01-27T16:53:52.250Z,97606.91
2019-01-27T16:56:20.884Z,97611.30
2019-01-27T16:58:49.467Z,97610.15
2019-01-27T17:01:18.124Z,97611.12
2019-01-27T17:03:46.830Z,97619.61
2019-01-27T17:06:15.794Z,97621.13
2019-01-27T17:08:44.428Z,97618.65
2019-01-27T17:11:14.542Z,97626.55
2019-01-27T17:13:43.363Z,97621.93
2019-01-27T17:16:11.967Z,97631.22
2019-01-27T17:18:44.560Z,97629.30
2019-01-27T17:21:13.209Z,97634.84
2019-01-27T17:23:41.842Z,97646.41
2019-01-27T17:26:10.552Z,97646.77
2019-01-27T17:28:39.119Z,97646.25
2019-01-27T17:31:07.758Z,97642.92
2019-01-27T17:33:36.384Z,97657.17
2019-01-27T17:36:05.033Z,97654.88
2019-01-27T17:38:40.226Z,97659.81
2019-01-27T17:41:04.027Z,97666.06
2019-01-27T17:43:32.922Z,97660.95
2019-01-27T17:46:01.556Z,97669.38
2019-01-27T17:48:30.370Z,97674.14
2019-01-27T17:50:59.115Z,97669.86
2019-01-27T17:53:29.385Z,97670.31
2019-01-27T17:55:57.990Z,97688.36
2019-01-27T17:58:43.861Z,97689.97
2019-01-27T18:01:33.070Z,97691.02
2019-01-27T18:04:26.311Z,97687.67
2019-01-27T18:07:12.354Z,97699.08
2019-01-27T18:09:48.218Z,97697.34
2019-01-27T18:12:25.276Z,97708.73
2019-01-27T18:14:54.105Z,97711.60
2019-01-27T18:17:23.844Z,97650.37
2019-01-27T18:19:52.489Z,97723.27
2019-01-27T18:22:21.095Z,97729.59
2019-01-27T18:24:49.699Z,97738.13
2019-01-27T18:27:18.302Z,97742.56
2019-01-27T18:29:46.879Z,97754.19
2019-01-27T18:32:15.488Z,97756.20
2019-01-27T18:34:44.034Z,97769.95
2019-01-27T18:37:12.662Z,97768.11
2019-01-27T18:39:41.268Z,97771.16
2019-01-27T18:42:10.095Z,97766.59
2019-01-27T18:44:38.731Z,97738.78
2019-01-27T18:47:07.359Z,97770.06
2019-01-27T18:49:36.297Z,97781.89
2019-01-27T18:52:05.094Z,97796.16
2019-01-27T18:54:51.663Z,97787.06
2019-01-27T18:57:27.477Z,97798.68
2019-01-27T19:00:30.501Z,97804.23
2019-01-27T19:03:10.014Z,97812.30
2019-01-27T19:05:46.063Z,97825.14
2019-01-27T19:08:32.652Z,97814.00
2019-01-27T19:11:10.891Z,97831.70
2019-01-27T19:13:57.122Z,97847.52
2019-01-27T19:16:56.715Z,97847.43
2019-01-27T19:19:33.999Z,97865.73
2019-01-27T19:22:20.374Z,97869.80
2019-01-27T19:25:13.130Z,97862.81
2019-01-27T19:28:19.063Z,97872.53
2019-01-27T19:31:06.701Z,97893.70
2019-01-27T19:33:44.531Z,97899.37
2019-01-27T19:36:22.841Z,97903.95
2019-01-27T19:39:01.076Z,97902.56
2019-01-27T19:41:57.573Z,97920.62
2019-01-27T19:44:43.742Z,97933.81
2019-01-27T19:47:40.747Z,97935.97
2019-01-27T19:50:28.696Z,97949.72
2019-01-27T19:53:25.608Z,97950.92
2019-01-27T19:56:12.286Z,97955.27
2019-01-27T19:58:51.855Z,97971.48
2019-01-27T20:01:27.182Z,97966.87
2019-01-27T20:04:13.592Z,97989.30
2019-01-27T20:07:05.238Z,97991.84
2019-01-27T20:10:02.068Z,97990.80
2019-01-27T20:12:37.911Z,97997.02
2019-01-27T20:15:28.862Z,98014.81
2019-01-27T20:18:22.576Z,98028.77
2019-01-27T20:21:09.323Z,98025.88
2019-01-27T20:23:56.943Z,98032.83
2019-01-27T20:26:36.442Z,98036.29
2019-01-27T20:29:22.914Z,98042.91
2019-01-27T20:32:13.583Z,98056.58
2019-01-27T20:35:06.858Z,98050.28
2019-01-27T20:37:44.982Z,98055.88
2019-01-27T20:40:33.939Z,98067.69
2019-01-27T20:43:40.070Z,98069.42
2019-01-27T20:46:15.554Z,98072.81
2019-01-27T20:48:53.127Z,98057.37
2019-01-27T20:51:39.332Z,98072.55
2019-01-27T20:54:42.279Z,98085.68
2019-01-27T20:57:32.543Z,98068.16
2019-01-27T21:00:20.148Z,98081.03
2019-01-27T21:03:06.319Z,98074.41
2019-01-27T21:05:52.685Z,98082.73
2019-01-27T21:08:58.839Z,98076.14
2019-01-27T21:12:00.853Z,98088.41
2019-01-27T21:14:38.068Z,98096.27
2019-01-27T21:17:15.729Z,98090.77
2019-01-27T21:19:48.412Z,98096.80
2019-01-27T21:22:17.074Z,98100.28
2019-01-27T21:24:45.706Z,98101.90
2019-01-27T21:27:14.317Z,98099.48
2019-01-27T21:29:42.875Z,98103.97
2019-01-27T21:32:11.583Z,98112.13
2019-01-27T21:34:40.226Z,98114.98
2019-01-27T21:37:08.908Z,98124.05
2019-01-27T21:39:37.657Z,98122.31
2019-01-27T21:42:06.282Z,98114.38
2019-01-27T21:44:34.796Z,98110.53
2019-01-27T21:47:03.404Z,98113.69
2019-01-27T21:49:32.004Z,98119.89
2019-01-27T21:52:00.636Z,98122.32
2019-01-27T21:54:29.340Z,98123.25
2019-01-27T21:56:57.948Z,98123.05
2019-01-27T21:59:26.627Z,98129.97
2019-01-27T22:01:55.220Z,98126.30
2019-01-27T22:04:24.306Z,98122.75
2019-01-27T22:06:53.515Z,98133.34
2019-01-27T22:09:22.108Z,98134.14
2019-01-27T22:11:50.684Z,98138.12
2019-01-27T22:14:19.312Z,98138.12
2019-01-27T22:16:47.943Z,98142.52
2019-01-27T22:19:16.540Z,98150.75
2019-01-27T22:21:45.206Z,98151.14
2019-01-27T22:24:14.040Z,98158.48
2019-01-27T22:26:42.671Z,98155.63
2019-01-27T22:29:11.270Z,98155.92
2019-01-27T22:31:40.022Z,98158.05
2019-01-27T22:34:08.600Z,98173.64
2019-01-27T22:36:37.240Z,98176.50
2019-01-27T22:39:08.151Z,98176.50
2019-01-27T22:41:37.000Z,98178.24
2019-01-27T22:44:06.160Z,98189.52
2019-01-27T22:46:34.781Z,98193.70
2019-01-27T22:49:03.343Z,98192.98
2019-01-27T22:51:31.939Z,98194.52
2019-01-27T22:54:00.654Z,98186.48
2019-01-27T22:56:29.249Z,98194.42
2019-01-27T22:58:57.884Z,98191.66
2019-01-27T23:01:26.545Z,98199.30
2019-01-27T23:03:55.931Z,98207.45
2019-01-27T23:06:25.171Z,98197.77
2019-01-27T23:08:53.823Z,98211.30
2019-01-27T23:11:22.429Z,98205.20
2019-01-27T23:13:51.063Z,98212.02
2019-01-27T23:16:19.913Z,98204.59
2019-01-27T23:18:48.510Z,98209.16
2019-01-27T23:21:17.090Z,98219.07
2019-01-27T23:23:45.833Z,98214.98
2019-01-27T23:26:14.492Z,98223.05
2019-01-27T23:28:43.162Z,98224.37
2019-01-27T23:31:12.058Z,98234.14
2019-01-27T23:33:40.673Z,98236.97
2019-01-27T23:36:09.276Z,98233.12
2019-01-27T23:38:37.847Z,98244.52
2019-01-27T23:41:06.418Z,98244.00
2019-01-27T23:43:35.011Z,98236.15
2019-01-27T23:46:03.607Z,98245.11
2019-01-27T23:48:32.195Z,98247.67
2019-01-27T23:51:00.911Z,98243.28
2019-01-27T23:53:29.561Z,98235.25
2019-01-27T23:55:58.162Z,98241.05
2019-01-27T23:58:26.735Z,98240.34
